Time;durP1;ratioP1;P1;durP2;ratioP2;P2;SDS_P1;SDS_P2;PMS_P1;PMS_P2;Temp;Humidity;BMP_temperature;BMP_pressure;BME280_temperature;BME280_humidity;BME280_pressure;Samples;Min_cycle;Max_cycle;Signal;HPM_P1;HPM_P2
2023/07/03 00:00:06;;;;;;;0.20;0.20;;;16.30;71.00;;;;;;5029950;28;20698;-66
2023/07/03 00:02:32;;;;;;;0.00;0.00;;;16.30;70.70;;;;;;5020085;28;20053;-66
2023/07/03 00:04:58;;;;;;;0.00;0.00;;;16.30;70.40;;;;;;5012592;28;20561;-66
2023/07/03 00:07:23;;;;;;;0.00;0.00;;;16.30;70.60;;;;;;5029759;28;20140;-66
2023/07/03 00:09:49;;;;;;;0.00;0.00;;;16.30;70.50;;;;;;5030186;28;20832;-66
2023/07/03 00:12:14;;;;;;;0.00;0.00;;;16.30;70.60;;;;;;5029415;28;20099;-66
2023/07/03 00:14:40;;;;;;;0.00;0.00;;;16.30;70.60;;;;;;5012303;28;20176;-66
2023/07/03 00:17:09;;;;;;;0.00;0.00;;;16.30;70.60;;;;;;5029433;28;20037;-66
2023/07/03 00:19:35;;;;;;;0.93;0.90;;;16.30;70.70;;;;;;4995640;28;20045;-66
2023/07/03 00:22:00;;;;;;;0.00;0.00;;;16.30;70.60;;;;;;5029558;28;20490;-66
2023/07/03 00:24:28;;;;;;;0.00;0.00;;;16.30;70.60;;;;;;5029624;28;20079;-66
2023/07/03 00:26:57;;;;;;;0.00;0.00;;;16.30;70.50;;;;;;5029095;28;20037;-66
2023/07/03 00:29:23;;;;;;;0.00;0.00;;;16.30;70.60;;;;;;5029658;28;20037;-66
2023/07/03 00:31:49;;;;;;;0.00;0.00;;;16.30;70.50;;;;;;5028987;28;20103;-66
2023/07/03 00:34:15;;;;;;;0.00;0.00;;;16.30;70.40;;;;;;5029167;28;20037;-66
2023/07/03 00:36:41;;;;;;;0.10;0.10;;;16.30;70.10;;;;;;5029026;28;20116;-66
2023/07/03 00:39:07;;;;;;;0.10;0.10;;;16.40;70.20;;;;;;5011648;28;20053;-66
2023/07/03 00:41:33;;;;;;;0.10;0.10;;;16.30;70.10;;;;;;5028670;28;20057;-66
2023/07/03 00:43:59;;;;;;;0.00;0.00;;;16.40;69.80;;;;;;5029110;28;20058;-66
2023/07/03 00:46:24;;;;;;;0.00;0.00;;;16.40;69.60;;;;;;5028163;28;20117;-66
2023/07/03 00:48:50;;;;;;;0.00;0.00;;;16.40;69.20;;;;;;4979535;28;20046;-66
2023/07/03 00:51:18;;;;;;;0.00;0.00;;;16.40;68.30;;;;;;5029142;28;20417;-66
2023/07/03 00:53:44;;;;;;;0.00;0.00;;;16.40;68.30;;;;;;5028693;28;20464;-66
2023/07/03 00:56:11;;;;;;;0.00;0.00;;;16.40;67.80;;;;;;4994026;28;20041;-66
2023/07/03 00:58:37;;;;;;;0.28;0.28;;;16.40;67.70;;;;;;5029017;28;20050;-66
2023/07/03 01:01:21;;;;;;;0.00;0.00;;;16.50;67.80;;;;;;5010764;28;20041;-66
2023/07/03 01:03:53;;;;;;;0.00;0.00;;;16.40;66.90;;;;;;5020234;28;20056;-66
2023/07/03 01:06:22;;;;;;;0.28;0.28;;;16.40;66.90;;;;;;5010722;28;20835;-66
2023/07/03 01:08:54;;;;;;;0.03;0.03;;;16.40;66.10;;;;;;5028642;28;20060;-66
2023/07/03 01:11:22;;;;;;;0.05;0.05;;;16.40;66.80;;;;;;5029015;28;20413;-66
2023/07/03 01:13:49;;;;;;;0.80;0.73;;;16.40;66.20;;;;;;5028780;28;20077;-66
2023/07/03 01:16:16;;;;;;;0.00;0.00;;;16.30;65.30;;;;;;5027820;28;20041;-66
2023/07/03 01:18:44;;;;;;;1.13;1.05;;;16.30;64.90;;;;;;5028791;28;20065;-66
2023/07/03 01:21:17;;;;;;;0.00;0.00;;;16.40;64.40;;;;;;5028465;28;20037;-66
2023/07/03 01:23:53;;;;;;;0.00;0.00;;;16.40;63.80;;;;;;5028021;28;20043;-66
2023/07/03 01:26:21;;;;;;;0.00;0.00;;;16.40;63.40;;;;;;5027899;28;20409;-66
2023/07/03 01:28:53;;;;;;;0.00;0.00;;;16.30;63.40;;;;;;5010628;28;20043;-66
2023/07/03 01:31:19;;;;;;;;;;;16.30;63.30;;;;;;5028355;28;20049;-66
2023/07/03 01:33:45;;;;;;;0.00;0.00;;;16.30;63.90;;;;;;5028783;28;19990;-67
2023/07/03 01:36:12;;;;;;;0.00;0.00;;;16.30;63.80;;;;;;5028551;28;20053;-66
2023/07/03 01:38:41;;;;;;;0.00;0.00;;;16.30;63.20;;;;;;5028041;28;20050;-67
2023/07/03 01:41:08;;;;;;;0.00;0.00;;;16.30;63.10;;;;;;5012226;28;20121;-66
2023/07/03 01:43:35;;;;;;;0.00;0.00;;;16.20;63.50;;;;;;5010780;28;20049;-66
2023/07/03 01:46:01;;;;;;;0.00;0.00;;;16.20;63.20;;;;;;5028359;28;20073;-66
2023/07/03 01:48:31;;;;;;;0.03;0.03;;;16.20;63.20;;;;;;5027426;28;20079;-66
2023/07/03 01:50:57;;;;;;;0.10;0.10;;;16.10;63.40;;;;;;5028313;28;20053;-66
2023/07/03 01:53:31;;;;;;;0.00;0.00;;;16.10;63.50;;;;;;5028180;28;20505;-66
2023/07/03 01:56:12;;;;;;;2.03;1.55;;;16.00;63.70;;;;;;5028685;28;20124;-66
2023/07/03 01:58:59;;;;;;;0.00;0.00;;;16.00;63.80;;;;;;5010201;28;20077;-66
2023/07/03 02:01:30;;;;;;;0.43;0.43;;;16.00;64.00;;;;;;5013601;28;20068;-66
2023/07/03 02:04:06;;;;;;;0.00;0.00;;;15.90;63.80;;;;;;5027935;28;20053;-67
2023/07/03 02:06:39;;;;;;;0.00;0.00;;;15.90;64.20;;;;;;5028179;28;20120;-66
2023/07/03 02:09:06;;;;;;;0.63;0.63;;;15.80;64.40;;;;;;4994809;28;20045;-66
2023/07/03 02:11:32;;;;;;;0.00;0.00;;;15.80;64.60;;;;;;5028756;28;20417;-66
2023/07/03 02:13:57;;;;;;;0.10;0.10;;;15.70;64.70;;;;;;5010364;28;20082;-66
2023/07/03 02:16:23;;;;;;;0.00;0.00;;;15.70;65.10;;;;;;5011251;28;20044;-66
2023/07/03 02:18:49;;;;;;;0.32;0.22;;;15.70;65.30;;;;;;5028494;28;20038;-66
2023/07/03 02:21:15;;;;;;;0.40;0.40;;;15.60;65.50;;;;;;5028892;28;20052;-67
2023/07/03 02:23:42;;;;;;;0.22;0.22;;;15.60;65.60;;;;;;5028739;28;20038;-66
2023/07/03 02:26:09;;;;;;;0.00;0.00;;;15.50;66.10;;;;;;5028264;28;20049;-66
2023/07/03 02:28:35;;;;;;;0.00;0.00;;;15.50;66.30;;;;;;5028071;28;20139;-67
2023/07/03 02:31:01;;;;;;;0.95;0.38;;;15.40;66.50;;;;;;5028066;28;20464;-66
2023/07/03 02:33:27;;;;;;;0.10;0.10;;;15.40;66.90;;;;;;5028680;28;20041;-66
2023/07/03 02:35:52;;;;;;;0.08;0.08;;;15.30;67.10;;;;;;5029367;28;20088;-66
2023/07/03 02:38:18;;;;;;;0.10;0.10;;;15.20;67.50;;;;;;5032108;28;20052;-66
2023/07/03 02:40:43;;;;;;;0.00;0.00;;;15.20;67.70;;;;;;5031594;28;20468;-66
2023/07/03 02:43:09;;;;;;;0.00;0.00;;;15.10;67.80;;;;;;5032337;28;20498;-66
2023/07/03 02:45:40;;;;;;;0.00;0.00;;;15.10;68.10;;;;;;5031192;28;20056;-66
2023/07/03 02:48:08;;;;;;;0.00;0.00;;;15.00;68.40;;;;;;5031597;28;20076;-66
2023/07/03 02:50:34;;;;;;;0.00;0.00;;;15.10;68.70;;;;;;5032316;28;20052;-67
2023/07/03 02:52:59;;;;;;;0.00;0.00;;;15.00;68.50;;;;;;5031417;28;20140;-67
2023/07/03 02:55:25;;;;;;;0.25;0.25;;;15.00;68.80;;;;;;5031773;28;20151;-68
2023/07/03 02:57:51;;;;;;;0.00;0.00;;;14.90;68.90;;;;;;5031811;28;20731;-68
2023/07/03 03:00:17;;;;;;;0.00;0.00;;;14.90;69.30;;;;;;5031140;28;20080;-67
2023/07/03 03:02:44;;;;;;;0.00;0.00;;;14.90;69.50;;;;;;5032021;28;20125;-68
2023/07/03 03:05:11;;;;;;;0.00;0.00;;;14.90;69.70;;;;;;5031514;28;20497;-67
2023/07/03 03:07:36;;;;;;;0.00;0.00;;;14.90;69.80;;;;;;5031596;28;20041;-67
2023/07/03 03:10:03;;;;;;;0.00;0.00;;;14.80;70.10;;;;;;5031355;28;20041;-67
2023/07/03 03:12:29;;;;;;;0.00;0.00;;;14.80;70.80;;;;;;5031948;28;20045;-67
2023/07/03 03:14:54;;;;;;;0.00;0.00;;;14.80;70.60;;;;;;5031332;28;20581;-67
2023/07/03 03:17:20;;;;;;;0.00;0.00;;;14.80;70.80;;;;;;5031705;28;20068;-67
2023/07/03 03:19:45;;;;;;;0.00;0.00;;;14.70;71.70;;;;;;5030433;28;20041;-67
2023/07/03 03:22:11;;;;;;;0.00;0.00;;;14.70;71.80;;;;;;5031757;28;20045;-67
2023/07/03 03:24:36;;;;;;;0.10;0.10;;;14.70;71.90;;;;;;5031207;28;20408;-67
2023/07/03 03:27:06;;;;;;;0.10;0.10;;;14.60;72.60;;;;;;5031722;28;20037;-67
2023/07/03 03:29:36;;;;;;;0.00;0.00;;;14.60;72.50;;;;;;5031511;28;20116;-67
2023/07/03 03:32:03;;;;;;;0.00;0.00;;;14.60;72.10;;;;;;5031826;28;20038;-67
2023/07/03 03:34:29;;;;;;;0.00;0.00;;;14.60;72.20;;;;;;5031370;28;20091;-67
2023/07/03 03:36:55;;;;;;;1.00;0.82;;;14.60;72.20;;;;;;5014042;28;20046;-67
2023/07/03 03:39:21;;;;;;;0.00;0.00;;;14.60;72.70;;;;;;5031135;28;20076;-67
2023/07/03 03:41:47;;;;;;;0.00;0.00;;;14.60;73.00;;;;;;5030060;28;20065;-67
2023/07/03 03:44:12;;;;;;;0.00;0.00;;;14.60;72.80;;;;;;5030982;28;20076;-67
2023/07/03 03:46:39;;;;;;;0.00;0.00;;;14.60;73.00;;;;;;4997278;28;20049;-67
2023/07/03 03:49:05;;;;;;;0.00;0.00;;;14.60;73.00;;;;;;5030505;28;20081;-68
2023/07/03 03:51:30;;;;;;;0.00;0.00;;;14.60;73.80;;;;;;5013249;28;20069;-67
2023/07/03 03:53:56;;;;;;;0.00;0.00;;;14.60;74.20;;;;;;5030634;28;20041;-67
2023/07/03 03:56:22;;;;;;;0.10;0.10;;;14.60;74.30;;;;;;5031000;28;20046;-68
2023/07/03 03:58:47;;;;;;;0.00;0.00;;;14.60;74.60;;;;;;5030498;28;20037;-67
2023/07/03 04:01:14;;;;;;;0.00;0.00;;;14.50;74.90;;;;;;5030660;28;20394;-67
2023/07/03 04:03:40;;;;;;;0.00;0.00;;;14.60;75.20;;;;;;5030697;28;20044;-67
2023/07/03 04:06:07;;;;;;;0.00;0.00;;;14.60;75.10;;;;;;5030206;28;20446;-67
2023/07/03 04:08:33;;;;;;;0.00;0.00;;;14.50;75.00;;;;;;5030225;28;20045;-67
2023/07/03 04:10:58;;;;;;;0.65;0.65;;;14.60;75.30;;;;;;5030137;28;20042;-68
2023/07/03 04:13:24;;;;;;;0.00;0.00;;;14.60;76.80;;;;;;5030796;28;20453;-68
2023/07/03 04:15:52;;;;;;;0.00;0.00;;;14.60;76.80;;;;;;5030563;28;20041;-67
2023/07/03 04:18:22;;;;;;;0.00;0.00;;;14.60;76.30;;;;;;5030610;28;20111;-67
2023/07/03 04:20:48;;;;;;;0.00;0.00;;;14.60;77.00;;;;;;5012278;28;20111;-68
2023/07/03 04:23:14;;;;;;;0.00;0.00;;;14.60;77.10;;;;;;5030914;28;20049;-67
2023/07/03 04:25:42;;;;;;;0.55;0.55;;;14.60;77.40;;;;;;5030552;28;20144;-67
2023/07/03 04:28:08;;;;;;;0.10;0.10;;;14.60;77.50;;;;;;5013082;28;20048;-69
2023/07/03 04:30:34;;;;;;;0.00;0.00;;;14.60;77.40;;;;;;5030223;28;20099;-68
2023/07/03 04:33:00;;;;;;;0.00;0.00;;;14.70;77.20;;;;;;5030487;28;20069;-68
2023/07/03 04:35:25;;;;;;;0.00;0.00;;;14.80;77.30;;;;;;5030558;28;20049;-68
2023/07/03 04:37:51;;;;;;;0.00;0.00;;;14.80;77.20;;;;;;5030151;28;20571;-67
2023/07/03 04:40:17;;;;;;;0.00;0.00;;;14.90;77.30;;;;;;5029794;28;20413;-68
2023/07/03 04:42:43;;;;;;;0.00;0.00;;;14.90;77.40;;;;;;5030233;28;20053;-68
2023/07/03 04:45:09;;;;;;;0.20;0.20;;;14.90;77.30;;;;;;5030052;28;20060;-67
2023/07/03 04:47:38;;;;;;;0.00;0.00;;;15.00;77.40;;;;;;5030044;28;20478;-67
2023/07/03 04:50:10;;;;;;;0.00;0.00;;;15.00;77.60;;;;;;5011989;28;20096;-68
2023/07/03 04:52:39;;;;;;;0.10;0.10;;;15.10;77.40;;;;;;5029878;28;20049;-68
2023/07/03 04:55:07;;;;;;;0.00;0.00;;;15.10;77.50;;;;;;5030182;28;20063;-67
2023/07/03 04:57:33;;;;;;;0.10;0.10;;;15.20;76.90;;;;;;5011907;28;20506;-68
2023/07/03 05:00:00;;;;;;;0.00;0.00;;;15.30;76.80;;;;;;5011018;28;20046;-68
2023/07/03 05:02:26;;;;;;;1.25;1.17;;;15.30;76.70;;;;;;5027076;28;20708;-68
2023/07/03 05:04:51;;;;;;;0.00;0.00;;;15.20;76.20;;;;;;5011860;28;20033;-67
2023/07/03 05:07:19;;;;;;;0.73;0.63;;;15.30;75.80;;;;;;5029434;28;20041;-67
2023/07/03 05:09:45;;;;;;;0.00;0.00;;;15.20;75.50;;;;;;5029713;28;20049;-68
2023/07/03 05:12:11;;;;;;;0.43;0.43;;;15.20;75.30;;;;;;5029242;28;20378;-68
2023/07/03 05:14:36;;;;;;;0.00;0.00;;;15.20;74.80;;;;;;5029418;28;20179;-68
2023/07/03 05:17:02;;;;;;;0.00;0.00;;;15.30;74.50;;;;;;5028335;28;20041;-68
2023/07/03 05:19:28;;;;;;;0.00;0.00;;;15.30;74.40;;;;;;5029262;28;20069;-67
2023/07/03 05:21:53;;;;;;;0.08;0.08;;;15.40;74.00;;;;;;5029236;28;20121;-68
2023/07/03 05:24:19;;;;;;;0.00;0.00;;;15.50;73.70;;;;;;5012061;28;20033;-67
2023/07/03 05:26:45;;;;;;;0.00;0.00;;;15.60;73.20;;;;;;5028507;28;20532;-68
2023/07/03 05:29:10;;;;;;;0.17;0.17;;;15.70;73.20;;;;;;5029539;28;20041;-67
2023/07/03 05:31:36;;;;;;;1.55;1.38;;;15.90;73.40;;;;;;5028966;28;20049;-68
2023/07/03 05:34:01;;;;;;;0.00;0.00;;;15.90;73.40;;;;;;5029340;28;20053;-68
2023/07/03 05:36:27;;;;;;;1.17;1.08;;;16.00;73.30;;;;;;5028509;28;20044;-67
2023/07/03 05:38:52;;;;;;;0.00;0.00;;;15.90;74.20;;;;;;5029298;28;20038;-68
2023/07/03 05:41:18;;;;;;;0.00;0.00;;;15.90;73.50;;;;;;5027904;28;20056;-68
2023/07/03 05:43:44;;;;;;;0.10;0.10;;;15.80;73.70;;;;;;5028924;28;20526;-65
2023/07/03 05:46:09;;;;;;;0.00;0.00;;;15.80;74.00;;;;;;5028789;28;20424;-67
2023/07/03 05:48:35;;;;;;;0.00;0.00;;;15.90;74.30;;;;;;5028665;28;20136;-67
2023/07/03 05:51:00;;;;;;;0.00;0.00;;;15.90;74.50;;;;;;5028757;28;20046;-67
2023/07/03 05:53:26;;;;;;;0.00;0.00;;;15.90;74.60;;;;;;5029308;28;20041;-67
2023/07/03 05:55:55;;;;;;;1.38;1.27;;;15.90;74.70;;;;;;5028189;28;20034;-67
2023/07/03 05:58:22;;;;;;;0.05;0.05;;;16.00;74.70;;;;;;5011997;28;20042;-67
2023/07/03 06:00:48;;;;;;;0.00;0.00;;;15.90;74.70;;;;;;5028594;28;20053;-67
2023/07/03 06:03:15;;;;;;;0.08;0.08;;;16.00;75.10;;;;;;5028087;28;20144;-67
2023/07/03 06:05:41;;;;;;;0.00;0.00;;;16.10;74.90;;;;;;5026132;28;20441;-67
2023/07/03 06:08:07;;;;;;;0.00;0.00;;;16.20;74.60;;;;;;5024144;28;20099;-67
2023/07/03 06:10:33;;;;;;;0.32;0.32;;;16.30;73.70;;;;;;5035730;28;20634;-67
2023/07/03 06:12:58;;;;;;;0.00;0.00;;;16.30;73.50;;;;;;5040454;28;20069;-67
2023/07/03 06:15:24;;;;;;;0.00;0.00;;;16.40;73.20;;;;;;5022949;28;20095;-67
2023/07/03 06:17:49;;;;;;;7.80;2.80;;;16.30;72.50;;;;;;5033956;28;20037;-66
2023/07/03 06:20:15;;;;;;;0.00;0.00;;;16.30;71.80;;;;;;5039631;28;20140;-66
2023/07/03 06:22:42;;;;;;;0.00;0.00;;;16.30;72.20;;;;;;5040708;28;20041;-67
2023/07/03 06:25:08;;;;;;;0.00;0.00;;;16.40;72.40;;;;;;5038600;28;20029;-66
2023/07/03 06:27:34;;;;;;;0.00;0.00;;;16.50;71.30;;;;;;5039594;28;20052;-67
2023/07/03 06:30:00;;;;;;;0.00;0.00;;;16.60;70.80;;;;;;5040650;28;20041;-67
2023/07/03 06:32:25;;;;;;;0.00;0.00;;;16.60;70.00;;;;;;5006791;28;20034;-67
2023/07/03 06:34:51;;;;;;;0.60;0.40;;;16.60;67.90;;;;;;5041563;28;20076;-67
2023/07/03 06:37:16;;;;;;;0.90;0.65;;;16.60;67.20;;;;;;5038720;28;20048;-70
2023/07/03 06:39:42;;;;;;;0.00;0.00;;;16.60;67.00;;;;;;5040486;28;20108;-69
2023/07/03 06:42:09;;;;;;;0.80;0.65;;;16.60;67.20;;;;;;5016228;28;20045;-69
2023/07/03 06:44:36;;;;;;;0.00;0.00;;;16.60;67.80;;;;;;5039605;28;20061;-69
2023/07/03 06:47:01;;;;;;;0.00;0.00;;;16.70;67.10;;;;;;5037292;28;20493;-70
2023/07/03 06:49:29;;;;;;;0.00;0.00;;;16.70;67.80;;;;;;5036055;28;20064;-69
2023/07/03 06:51:56;;;;;;;0.00;0.00;;;16.70;68.20;;;;;;5020259;28;20517;-67
2023/07/03 06:54:22;;;;;;;0.00;0.00;;;16.70;67.70;;;;;;5037393;28;20040;-69
2023/07/03 06:56:47;;;;;;;0.00;0.00;;;16.60;66.80;;;;;;5038410;28;20410;-66
2023/07/03 06:59:13;;;;;;;0.00;0.00;;;16.50;67.00;;;;;;5039157;28;20383;-66
2023/07/03 07:01:39;;;;;;;0.38;0.30;;;16.50;67.40;;;;;;5019972;28;20064;-65
2023/07/03 07:04:05;;;;;;;0.00;0.00;;;16.30;67.90;;;;;;5037082;28;20080;-65
2023/07/03 07:06:31;;;;;;;0.00;0.00;;;16.40;68.10;;;;;;5037825;28;20525;-64
2023/07/03 07:08:57;;;;;;;0.00;0.00;;;16.40;68.40;;;;;;5020145;28;20057;-65
2023/07/03 07:11:30;;;;;;;0.00;0.00;;;16.40;69.30;;;;;;5037399;28;20136;-65
2023/07/03 07:13:57;;;;;;;0.00;0.00;;;16.50;69.70;;;;;;5036924;28;20033;-65
2023/07/03 07:16:25;;;;;;;0.20;0.20;;;16.50;70.60;;;;;;5039352;28;20065;-66
2023/07/03 07:18:56;;;;;;;0.00;0.00;;;16.60;70.90;;;;;;5038057;28;20421;-65
2023/07/03 07:21:22;;;;;;;0.10;0.10;;;16.60;70.70;;;;;;5035049;28;20044;-65
2023/07/03 07:23:57;;;;;;;0.63;0.63;;;16.60;70.40;;;;;;5036358;28;20072;-65
2023/07/03 07:26:24;;;;;;;0.88;0.38;;;16.70;69.60;;;;;;5037508;28;20498;-65
2023/07/03 07:28:50;;;;;;;0.30;0.30;;;16.60;68.40;;;;;;5035792;28;20053;-66
2023/07/03 07:31:26;;;;;;;0.00;0.00;;;16.80;68.80;;;;;;5036978;28;20439;-65
2023/07/03 07:33:52;;;;;;;0.00;0.00;;;16.80;67.60;;;;;;5037932;28;20048;-65
2023/07/03 07:36:20;;;;;;;0.00;0.00;;;16.80;66.60;;;;;;5037942;28;20033;-66
2023/07/03 07:38:47;;;;;;;0.00;0.00;;;16.90;67.30;;;;;;5020196;28;20111;-65
2023/07/03 07:41:13;;;;;;;0.00;0.00;;;16.90;67.70;;;;;;5037457;28;20096;-65
2023/07/03 07:43:39;;;;;;;0.00;0.00;;;16.90;67.70;;;;;;5018723;28;20064;-66
2023/07/03 07:46:04;;;;;;;0.00;0.00;;;17.00;66.90;;;;;;5036444;28;20049;-66
2023/07/03 07:48:30;;;;;;;0.00;0.00;;;16.90;67.60;;;;;;5020442;28;20049;-66
2023/07/03 07:50:55;;;;;;;0.10;0.10;;;17.00;67.40;;;;;;5037911;28;20040;-65
2023/07/03 07:53:21;;;;;;;0.10;0.10;;;17.00;66.70;;;;;;5038190;28;20041;-65
2023/07/03 07:55:46;;;;;;;0.00;0.00;;;16.90;67.40;;;;;;5001766;28;20037;-65
2023/07/03 07:58:13;;;;;;;1.25;0.70;;;16.90;67.70;;;;;;5037828;28;20045;-66
2023/07/03 08:00:43;;;;;;;0.00;0.00;;;17.00;68.20;;;;;;5035568;28;20111;-66
2023/07/03 08:03:08;;;;;;;0.00;0.00;;;17.00;68.10;;;;;;5018398;28;20045;-66
2023/07/03 08:05:37;;;;;;;0.20;0.20;;;17.00;67.60;;;;;;5019364;28;20852;-66
2023/07/03 08:08:03;;;;;;;0.00;0.00;;;17.10;68.20;;;;;;5037588;28;20037;-66
2023/07/03 08:10:29;;;;;;;0.00;0.00;;;17.30;67.10;;;;;;5036911;28;20045;-66
2023/07/03 08:12:54;;;;;;;0.00;0.00;;;17.40;64.80;;;;;;5037218;28;20464;-67
2023/07/03 08:15:20;;;;;;;0.00;0.00;;;17.50;65.60;;;;;;5003262;28;20494;-67
2023/07/03 08:17:46;;;;;;;0.00;0.00;;;17.50;64.90;;;;;;5017646;28;20588;-65
2023/07/03 08:20:12;;;;;;;0.00;0.00;;;17.40;63.40;;;;;;5002485;28;20045;-65
2023/07/03 08:22:40;;;;;;;0.00;0.00;;;17.30;63.50;;;;;;5036991;28;20457;-65
2023/07/03 08:25:07;;;;;;;13.38;2.45;;;17.30;64.80;;;;;;5035229;28;20504;-65
2023/07/03 08:27:33;;;;;;;0.00;0.00;;;17.30;64.30;;;;;;5035528;28;20187;-66
2023/07/03 08:29:58;;;;;;;0.00;0.00;;;17.30;64.30;;;;;;5034896;28;20128;-65
2023/07/03 08:32:24;;;;;;;0.00;0.00;;;17.30;65.40;;;;;;5034992;28;20044;-65
2023/07/03 08:34:50;;;;;;;0.00;0.00;;;17.20;65.70;;;;;;5034085;28;20091;-65
2023/07/03 08:37:16;;;;;;;0.00;0.00;;;17.20;65.60;;;;;;5035194;28;20033;-65
2023/07/03 08:39:42;;;;;;;0.00;0.00;;;17.10;66.60;;;;;;5036182;28;20063;-65
2023/07/03 08:42:30;;;;;;;0.00;0.00;;;17.10;67.90;;;;;;5036334;28;20086;-65
2023/07/03 08:44:56;;;;;;;0.00;0.00;;;17.10;68.90;;;;;;5034364;28;20057;-65
2023/07/03 08:47:26;;;;;;;0.00;0.00;;;17.10;69.40;;;;;;5016033;28;20049;-65
2023/07/03 08:49:53;;;;;;;0.00;0.00;;;17.10;68.80;;;;;;5034649;28;20046;-66
2023/07/03 08:52:57;;;;;;;0.05;0.05;;;17.10;69.10;;;;;;5037068;28;20044;-66
2023/07/03 08:55:28;;;;;;;2.70;0.50;;;17.10;69.30;;;;;;4934020;29;20575;-67
2023/07/03 08:57:53;;;;;;;0.00;0.00;;;17.10;69.40;;;;;;5004860;28;20087;-64
2023/07/03 09:00:20;;;;;;;0.00;0.00;;;17.10;69.70;;;;;;5035049;28;20132;-65
2023/07/03 09:03:04;;;;;;;0.05;0.05;;;17.10;69.60;;;;;;5035619;28;20113;-66
2023/07/03 09:05:42;;;;;;;0.00;0.00;;;17.10;70.20;;;;;;5031143;28;20494;-66
2023/07/03 09:08:11;;;;;;;0.00;0.00;;;17.10;70.10;;;;;;5016746;28;20041;-66
2023/07/03 09:10:42;;;;;;;1.55;1.45;;;17.10;70.60;;;;;;5030884;28;20076;-66
2023/07/03 09:13:35;;;;;;;0.00;0.00;;;17.10;71.50;;;;;;5033098;28;20648;-65
2023/07/03 09:16:16;;;;;;;0.00;0.00;;;17.00;71.70;;;;;;5035755;28;20064;-65
2023/07/03 09:18:49;;;;;;;0.00;0.00;;;16.90;73.30;;;;;;5034769;28;20722;-66
2023/07/03 09:21:15;;;;;;;0.20;0.20;;;16.60;74.90;;;;;;5033339;28;20057;-68
2023/07/03 09:23:51;;;;;;;0.00;0.00;;;16.50;74.60;;;;;;5033761;28;20087;-66
2023/07/03 09:26:22;;;;;;;0.00;0.00;;;16.40;74.80;;;;;;5036292;28;20447;-66
2023/07/03 09:28:49;;;;;;;0.30;0.30;;;16.20;76.40;;;;;;5037710;28;20041;-66
2023/07/03 09:31:16;;;;;;;0.00;0.00;;;16.10;76.40;;;;;;5033966;28;20041;-66
2023/07/03 09:33:42;;;;;;;0.00;0.00;;;16.00;77.10;;;;;;5033015;28;20047;-67
2023/07/03 09:36:20;;;;;;;0.00;0.00;;;16.00;77.60;;;;;;5035754;28;20049;-66
2023/07/03 09:38:47;;;;;;;0.00;0.00;;;16.00;77.60;;;;;;5036309;28;20061;-66
2023/07/03 09:41:13;;;;;;;0.00;0.00;;;16.00;78.10;;;;;;5033495;28;20037;-66
2023/07/03 09:43:43;;;;;;;4.28;0.82;;;16.00;78.90;;;;;;5033139;28;20408;-66
2023/07/03 09:46:13;;;;;;;0.00;0.00;;;16.20;78.90;;;;;;5035827;28;20365;-66
2023/07/03 09:48:39;;;;;;;0.00;0.00;;;16.20;77.30;;;;;;5020267;28;20102;-66
2023/07/03 09:51:26;;;;;;;0.00;0.00;;;16.10;75.90;;;;;;5038881;28;20455;-65
2023/07/03 09:53:53;;;;;;;0.00;0.00;;;16.20;76.00;;;;;;5037873;28;20052;-65
2023/07/03 09:56:22;;;;;;;0.00;0.00;;;16.10;76.10;;;;;;5038859;28;20393;-66
2023/07/03 09:58:50;;;;;;;0.00;0.00;;;16.10;76.70;;;;;;5038742;28;20072;-66
2023/07/03 10:01:23;;;;;;;0.00;0.00;;;16.20;77.00;;;;;;5036128;28;20051;-66
2023/07/03 10:04:02;;;;;;;0.00;0.00;;;16.20;77.70;;;;;;5035803;28;20045;-66
2023/07/03 10:06:28;;;;;;;0.00;0.00;;;16.30;77.10;;;;;;5038824;28;20117;-67
2023/07/03 10:08:58;;;;;;;0.00;0.00;;;16.40;75.40;;;;;;5039425;28;20042;-69
2023/07/03 10:11:39;;;;;;;0.52;0.52;;;16.40;73.30;;;;;;5036912;28;20699;-69
2023/07/03 10:14:08;;;;;;;0.00;0.00;;;16.50;72.20;;;;;;5037969;28;20045;-68
2023/07/03 10:16:35;;;;;;;0.00;0.00;;;16.60;71.40;;;;;;5038195;28;20068;-69
2023/07/03 10:19:02;;;;;;;0.00;0.00;;;16.60;71.20;;;;;;5005137;28;20048;-68
2023/07/03 10:21:29;;;;;;;0.00;0.00;;;16.70;71.10;;;;;;5038572;28;20052;-68
2023/07/03 10:23:58;;;;;;;0.00;0.00;;;16.90;71.00;;;;;;5035608;28;20037;-68
2023/07/03 10:26:32;;;;;;;0.00;0.00;;;17.00;70.80;;;;;;5038434;28;20044;-68
2023/07/03 10:29:10;;;;;;;0.00;0.00;;;17.10;70.30;;;;;;5038312;28;20580;-69
2023/07/03 10:31:46;;;;;;;0.00;0.00;;;17.10;69.70;;;;;;5038996;28;20045;-68
2023/07/03 10:34:19;;;;;;;0.00;0.00;;;17.10;69.20;;;;;;5021063;28;20045;-69
2023/07/03 10:36:49;;;;;;;0.00;0.00;;;17.20;68.30;;;;;;5037797;28;20065;-68
2023/07/03 10:39:47;;;;;;;0.00;0.00;;;17.30;68.20;;;;;;5039826;28;20041;-68
2023/07/03 10:42:29;;;;;;;0.00;0.00;;;17.40;68.20;;;;;;5036514;28;20053;-69
2023/07/03 10:45:01;;;;;;;0.00;0.00;;;17.50;66.80;;;;;;5018313;28;20041;-68
2023/07/03 10:47:39;;;;;;;0.10;0.10;;;17.50;65.20;;;;;;5035875;28;20546;-66
2023/07/03 10:50:08;;;;;;;0.00;0.00;;;17.50;64.90;;;;;;5034480;28;20682;-69
2023/07/03 10:52:39;;;;;;;0.00;0.00;;;17.60;64.50;;;;;;5017728;28;20492;-70
2023/07/03 10:55:10;;;;;;;0.00;0.00;;;17.50;64.20;;;;;;5031549;28;20056;-69
2023/07/03 10:58:12;;;;;;;0.00;0.00;;;17.40;63.90;;;;;;5034564;28;20077;-70
2023/07/03 11:01:01;;;;;;;0.00;0.00;;;17.40;63.90;;;;;;5038323;28;20067;-70
2023/07/03 11:03:42;;;;;;;0.00;0.00;;;17.20;65.00;;;;;;5035673;28;20049;-69
2023/07/03 11:06:28;;;;;;;6.60;1.75;;;17.10;65.50;;;;;;5038689;28;20049;-69
2023/07/03 11:09:19;;;;;;;0.00;0.00;;;17.00;65.50;;;;;;5003167;28;20567;-70
2023/07/03 11:11:54;;;;;;;0.00;0.00;;;17.00;66.70;;;;;;5039545;28;20040;-69
2023/07/03 11:14:33;;;;;;;0.00;0.00;;;17.10;67.00;;;;;;5019577;28;20049;-69
2023/07/03 11:17:26;;;;;;;0.00;0.00;;;17.30;67.90;;;;;;5035896;28;20742;-70
2023/07/03 11:20:19;;;;;;;0.10;0.10;;;17.50;67.30;;;;;;5018850;28;20489;-71
2023/07/03 11:23:19;;;;;;;0.00;0.00;;;17.60;65.10;;;;;;5005535;28;20065;-70
2023/07/03 11:26:02;;;;;;;0.00;0.00;;;17.60;64.90;;;;;;5032588;28;20410;-70
2023/07/03 11:28:34;;;;;;;0.00;0.00;;;17.70;63.10;;;;;;5019426;28;20040;-71
2023/07/03 11:31:02;;;;;;;0.00;0.00;;;17.70;64.00;;;;;;5018539;28;20124;-71
2023/07/03 11:33:29;;;;;;;0.00;0.00;;;17.70;63.80;;;;;;5037479;28;20045;-71
2023/07/03 11:35:59;;;;;;;0.00;0.00;;;17.70;64.60;;;;;;5019180;28;20099;-71
2023/07/03 11:38:26;;;;;;;16.85;1.75;;;17.80;64.50;;;;;;5037271;28;20095;-71
2023/07/03 11:40:55;;;;;;;0.00;0.00;;;17.80;64.10;;;;;;5036938;28;20044;-71
2023/07/03 11:43:32;;;;;;;0.00;0.00;;;17.80;63.00;;;;;;5018497;28;20413;-71
2023/07/03 11:45:57;;;;;;;0.00;0.00;;;17.60;63.50;;;;;;5016463;28;20170;-71
2023/07/03 11:48:31;;;;;;;0.00;0.00;;;17.60;63.50;;;;;;5016185;28;20044;-68
2023/07/03 11:51:07;;;;;;;0.25;0.25;;;17.50;63.70;;;;;;5037652;28;20115;-71
2023/07/03 11:53:34;;;;;;;0.00;0.00;;;17.40;63.90;;;;;;5037100;28;20050;-71
2023/07/03 11:56:01;;;;;;;0.00;0.00;;;17.30;63.40;;;;;;5038090;28;20560;-71
2023/07/03 11:58:30;;;;;;;0.80;0.73;;;17.30;63.70;;;;;;5019165;28;20393;-71
2023/07/03 12:01:20;;;;;;;0.00;0.00;;;17.30;63.40;;;;;;5037593;28;20124;-71
2023/07/03 12:03:54;;;;;;;0.00;0.00;;;17.40;64.60;;;;;;5035946;28;20504;-71
2023/07/03 12:06:38;;;;;;;0.00;0.00;;;17.50;64.20;;;;;;5037177;28;20033;-71
2023/07/03 12:09:23;;;;;;;0.00;0.00;;;17.50;62.60;;;;;;5019902;28;20135;-71
2023/07/03 12:12:03;;;;;;;0.00;0.00;;;17.40;62.90;;;;;;5036664;28;20142;-71
2023/07/03 12:14:46;;;;;;;0.00;0.00;;;17.40;63.60;;;;;;5001337;28;20134;-70
2023/07/03 12:17:37;;;;;;;0.10;0.10;;;17.40;63.40;;;;;;5032953;28;20053;-70
2023/07/03 12:20:06;;;;;;;;;;;17.30;62.20;;;;;;5030511;28;20044;-70
2023/07/03 12:22:38;;;;;;;0.00;0.00;;;17.40;61.70;;;;;;5033009;28;19939;-69
2023/07/03 12:25:17;;;;;;;0.00;0.00;;;17.30;62.10;;;;;;5036247;28;20044;-70
2023/07/03 12:27:42;;;;;;;0.00;0.00;;;17.30;63.00;;;;;;5036369;28;20071;-70
2023/07/03 12:30:25;;;;;;;0.00;0.00;;;17.40;63.20;;;;;;5034758;28;20073;-70
2023/07/03 12:32:53;;;;;;;0.00;0.00;;;17.40;62.90;;;;;;5035897;28;20049;-70
2023/07/03 12:35:23;;;;;;;0.13;0.13;;;17.40;63.20;;;;;;5035340;28;20044;-70
2023/07/03 12:38:05;;;;;;;0.00;0.00;;;17.50;62.80;;;;;;5017937;28;20407;-71
2023/07/03 12:40:31;;;;;;;0.00;0.00;;;17.50;63.20;;;;;;5030949;28;20147;-68
2023/07/03 12:42:57;;;;;;;3.53;0.43;;;17.60;61.80;;;;;;5009737;28;20050;-70
2023/07/03 12:45:27;;;;;;;1.08;0.47;;;17.60;62.40;;;;;;5016105;28;20053;-70
2023/07/03 12:48:10;;;;;;;0.00;0.00;;;17.70;62.10;;;;;;5014319;28;20842;-69
2023/07/03 12:50:51;;;;;;;0.00;0.00;;;17.80;60.20;;;;;;5016233;28;20042;-69
2023/07/03 12:53:18;;;;;;;1.08;0.75;;;17.80;61.60;;;;;;5014748;28;20049;-69
2023/07/03 12:55:48;;;;;;;0.00;0.00;;;17.80;61.30;;;;;;5017378;28;20068;-69
2023/07/03 12:58:14;;;;;;;0.00;0.00;;;17.90;61.90;;;;;;5013840;28;20071;-70